Myra Eckstein — WDF9473 — position and weather

sailwx.info

Track history (hours):
 
Tides and Currents Weather Stations Pressure Air Temp Water Temp Dewpoint Dewpoint Depression Visibility Wind Speed Wind Dir Waves Ship Positions

Myra Eckstein

Owner: Marquette Transportation Co. LLC, Paducah, KY. More information available from US FCC via Universal Licensing System and Coast Guard Vessel Documentation Center.

Last reported at 2018-May-16 09:09 UTC. Time now 2018-May-24 08:11 UTC.
Position N 32°48' W 091°10'.

Length 47 m; draft 0.6 m.

Type: Towing. MMSI: 367505510.

Date/timePositionNaut miles runAvg speedWind from/ knotsBaromVisibWave heightAir tempDewpointWater temp
2018-May-16 09:09N 32°48' W 091°10'0 0.6
2018-May-16 09:00N 32°48' W 091°10'1 1.5
2018-May-16 08:28N 32°47' W 091°09'2 3.9
2018-May-16 08:00N 32°45' W 091°09'2 3.8
2018-May-16 07:30N 32°44' W 091°08'2 4.3
2018-May-16 07:00N 32°44' W 091°05'2 4.1
2018-May-16 06:30N 32°43' W 091°03'2 3.6
2018-May-16 06:00N 32°42' W 091°04'2 4.3
2018-May-16 05:30N 32°40' W 091°06'2 3.8
2018-May-16 05:00N 32°40' W 091°08'2 4.5
2018-May-16 04:30N 32°37' W 091°09'1 2.6
2018-May-16 03:59N 32°36' W 091°08'1 2.3
2018-May-16 03:28N 32°35' W 091°07'2 4.2
2018-May-16 03:00N 32°34' W 091°06'2 3.9
2018-May-16 02:30N 32°32' W 091°06'2 4.1
2018-May-16 02:00N 32°30' W 091°07'2 4.0
2018-May-16 01:30N 32°28' W 091°06'2 4.4
2018-May-16 01:00N 32°27' W 091°04'2 4.4
2018-May-16 00:30N 32°26' W 091°01'2 4.2
2018-May-16 00:00N 32°24' W 090°60'2 4.2
2018-May-15 23:30N 32°22' W 091°00'2 3.0
2018-May-15 23:00N 32°21' W 090°59'2 3.7
2018-May-15 22:30N 32°21' W 090°57'2 4.1
2018-May-15 22:00N 32°20' W 090°55'2 3.2
2018-May-15 21:30N 32°19' W 090°54'2 3.4
2018-May-15 21:00N 32°18' W 090°56'2 3.7
2018-May-15 20:30N 32°16' W 090°57'2 3.9
2018-May-15 20:00N 32°15' W 090°59'1 2.1
2018-May-15 19:30N 32°14' W 090°59'2 3.7
2018-May-15 19:00N 32°12' W 090°59'2 3.9
2018-May-15 18:30N 32°10' W 090°60'2 4.2
2018-May-15 18:00N 32°08' W 091°00'2 3.7
2018-May-15 17:30N 32°07' W 091°02'2 3.8
2018-May-15 16:59N 32°08' W 091°04'2 3.6
2018-May-15 16:30N 32°07' W 091°06'2 4.1
2018-May-15 15:59N 32°05' W 091°05'0 0.5
2018-May-15 14:59N 32°04' W 091°05'1 3.1
2018-May-15 14:30N 32°03' W 091°05'2 4.2
2018-May-15 13:59N 32°01' W 091°05'2 4.2
2018-May-15 13:30N 31°59' W 091°06'2 4.1
2018-May-15 13:00N 31°59' W 091°09'2 4.0
2018-May-15 12:30N 31°58' W 091°11'8 4.2
2018-May-15 10:34N 31°52' W 091°16'0 5.0
2018-May-15 10:30N 31°52' W 091°17'2 4.6
2018-May-15 10:00N 31°51' W 091°20'2 3.8
2018-May-15 09:30N 31°50' W 091°21'65 3.2
2018-May-14 12:57N 30°46' W 091°36'2 3.5
2018-May-14 12:28N 30°44' W 091°35'  
2018-May-09 17:48N 31°59' W 091°08'7 8.3
2018-May-09 17:00N 32°05' W 091°05'3 6.0
2018-May-09 16:30N 32°08' W 091°05'4 8.1
2018-May-09 15:59N 32°10' W 091°00'510.6
2018-May-09 15:30N 32°14' W 090°59'510.3
2018-May-09 15:00N 32°18' W 090°55'3 7.0
2018-May-09 14:30N 32°21' W 090°58'4 7.6
2018-May-09 14:00N 32°24' W 090°60'510.0
2018-May-09 13:30N 32°27' W 091°05'5 9.2
2018-May-09 13:00N 32°31' W 091°06'5 9.3
2018-May-09 12:30N 32°35' W 091°08'4 8.7
2018-May-09 12:00N 32°40' W 091°08'5 9.6
2018-May-09 11:28N 32°43' W 091°03'5 8.9
2018-May-09 10:57N 32°44' W 091°08'  
Track history (hours):
 
Tides and Currents Weather Stations Pressure Air Temp Water Temp Dewpoint Dewpoint Depression Visibility Wind Speed Wind Dir Waves Ship Positions

Myra Eckstein

Owner: Marquette Transportation Co. LLC, Paducah, KY. More information available from US FCC via Universal Licensing System and Coast Guard Vessel Documentation Center.

Last reported at 2018-May-16 09:09 UTC. Time now 2018-May-24 08:11 UTC.
Position N 32°48' W 091°10'.

Length 47 m; draft 0.6 m.

Type: Towing. MMSI: 367505510.

Date/timePositionNaut miles runAvg speedWind from/ knotsBaromVisibWave heightAir tempDewpointWater temp
2018-May-16 09:09N 32°48' W 091°10'0 0.6
2018-May-16 09:00N 32°48' W 091°10'1 1.5
2018-May-16 08:28N 32°47' W 091°09'2 3.9
2018-May-16 08:00N 32°45' W 091°09'2 3.8
2018-May-16 07:30N 32°44' W 091°08'2 4.3
2018-May-16 07:00N 32°44' W 091°05'2 4.1
2018-May-16 06:30N 32°43' W 091°03'2 3.6
2018-May-16 06:00N 32°42' W 091°04'2 4.3
2018-May-16 05:30N 32°40' W 091°06'2 3.8
2018-May-16 05:00N 32°40' W 091°08'2 4.5
2018-May-16 04:30N 32°37' W 091°09'1 2.6
2018-May-16 03:59N 32°36' W 091°08'1 2.3
2018-May-16 03:28N 32°35' W 091°07'2 4.2
2018-May-16 03:00N 32°34' W 091°06'2 3.9
2018-May-16 02:30N 32°32' W 091°06'2 4.1
2018-May-16 02:00N 32°30' W 091°07'2 4.0
2018-May-16 01:30N 32°28' W 091°06'2 4.4
2018-May-16 01:00N 32°27' W 091°04'2 4.4
2018-May-16 00:30N 32°26' W 091°01'2 4.2
2018-May-16 00:00N 32°24' W 090°60'2 4.2
2018-May-15 23:30N 32°22' W 091°00'2 3.0
2018-May-15 23:00N 32°21' W 090°59'2 3.7
2018-May-15 22:30N 32°21' W 090°57'2 4.1
2018-May-15 22:00N 32°20' W 090°55'2 3.2
2018-May-15 21:30N 32°19' W 090°54'2 3.4
2018-May-15 21:00N 32°18' W 090°56'2 3.7
2018-May-15 20:30N 32°16' W 090°57'2 3.9
2018-May-15 20:00N 32°15' W 090°59'1 2.1
2018-May-15 19:30N 32°14' W 090°59'2 3.7
2018-May-15 19:00N 32°12' W 090°59'2 3.9
2018-May-15 18:30N 32°10' W 090°60'2 4.2
2018-May-15 18:00N 32°08' W 091°00'2 3.7
2018-May-15 17:30N 32°07' W 091°02'2 3.8
2018-May-15 16:59N 32°08' W 091°04'2 3.6
2018-May-15 16:30N 32°07' W 091°06'2 4.1
2018-May-15 15:59N 32°05' W 091°05'0 0.5
2018-May-15 14:59N 32°04' W 091°05'1 3.1
2018-May-15 14:30N 32°03' W 091°05'2 4.2
2018-May-15 13:59N 32°01' W 091°05'2 4.2
2018-May-15 13:30N 31°59' W 091°06'2 4.1
2018-May-15 13:00N 31°59' W 091°09'2 4.0
2018-May-15 12:30N 31°58' W 091°11'8 4.2
2018-May-15 10:34N 31°52' W 091°16'0 5.0
2018-May-15 10:30N 31°52' W 091°17'2 4.6
2018-May-15 10:00N 31°51' W 091°20'2 3.8
2018-May-15 09:30N 31°50' W 091°21'65 3.2
2018-May-14 12:57N 30°46' W 091°36'2 3.5
2018-May-14 12:28N 30°44' W 091°35'  
2018-May-09 17:48N 31°59' W 091°08'7 8.3
2018-May-09 17:00N 32°05' W 091°05'3 6.0
2018-May-09 16:30N 32°08' W 091°05'4 8.1
2018-May-09 15:59N 32°10' W 091°00'510.6
2018-May-09 15:30N 32°14' W 090°59'510.3
2018-May-09 15:00N 32°18' W 090°55'3 7.0
2018-May-09 14:30N 32°21' W 090°58'4 7.6
2018-May-09 14:00N 32°24' W 090°60'510.0
2018-May-09 13:30N 32°27' W 091°05'5 9.2
2018-May-09 13:00N 32°31' W 091°06'5 9.3
2018-May-09 12:30N 32°35' W 091°08'4 8.7
2018-May-09 12:00N 32°40' W 091°08'5 9.6
2018-May-09 11:28N 32°43' W 091°03'5 8.9
2018-May-09 10:57N 32°44' W 091°08'  

Dump ship's entire track history